Salinas, CA

1:37 AM PST on December 05, 2016 (GMT -0800)
Los Olivos | | Change Station

Elev 39 ft 36.66 °N, 121.67 °W | Updated 46 seconds ago

Clear
Clear
46.4 °F
Feels Like 46 °F
N
0.0
Wind Variable Wind from WNW
Gusts 0.0 mph

Today
High -- | Low -- °F
--% Chance of Precip.
Yesterday
High -- | Low -- °F
Precip. -- in
Pressure 30.14 in
Visibility 6.0 miles
Clouds Clear
Windchill 46 °F
Dew Point 46 °F
Humidity 97%
Rainfall 0.00 in
Snow Depth Not available.
7:04 AM 4:50 PM
Waxing Crescent, 30% visible
METAR KSNS 050853Z AUTO 31003KT 6SM BR CLR 10/09 A3011 RMK AO2 SLP204 T01000089 58009
Pressure 30.14 in
Visibility 6.0 miles
Clouds Clear
Windchill 46 °F
Dew Point 46 °F
Humidity 97%
Rainfall 0.00 in
Snow Depth Not available.
7:04 AM 4:50 PM
Waxing Crescent, 30% visible
METAR KSNS 050853Z AUTO 31003KT 6SM BR CLR 10/09 A3011 RMK AO2 SLP204 T01000089 58009

10-Day Weather Forecast

Almanac

Astronomy

Dec. 05, 2016 Rise Set
Actual Time
Civil Twilight
Nautical Twilight
Astronomical Twilight
Moon
Length of Visible Light
Length of Day
Tomorrow will be .
, % of the Moon is Illuminated

Today's Extremes

State Highs State Lows

Community

WunderPhotos

Upload Photos

1,955,771 photos uploaded!

WunderBlog® & News

Nearby

Air Quality

  Air Quality AQ Index Pollutant
Not available.

Snow Depth

Station Depth Elevation

Earthquake Activity

City Distance Mag. Time & Date
Minimum magnitude displayed is 2.5.

Coastal Water Temperatures

Place Temperature

Stations

Nearby Weather Stations

Station Location Temp. Windchill Dew Point Humidity Wind Precip. Elev Updated Type
                   

Watches & Warnings

There are currently no watches in effect.